Time;durP1;ratioP1;P1;durP2;ratioP2;P2;SDS_P1;SDS_P2;PMS_P1;PMS_P2;Temp;Humidity;BMP_temperature;BMP_pressure;BME280_temperature;BME280_humidity;BME280_pressure;Samples;Min_cycle;Max_cycle;Signal;HPM_P1;HPM_P2
2021/04/04 00:00:52;;;;;;;;;;;0.60;97.90;;;;;;5052422;28;19919;-75
2021/04/04 00:03:18;;;;;;;;;;;0.60;98.00;;;;;;5051997;28;19908;-75
2021/04/04 00:05:43;;;;;;;;;;;0.50;98.10;;;;;;5049850;28;19955;-75
2021/04/04 00:08:08;;;;;;;;;;;0.60;98.20;;;;;;5052077;28;19934;-75
2021/04/04 00:10:34;;;;;;;;;;;0.50;98.30;;;;;;5052122;28;20024;-75
2021/04/04 00:13:00;;;;;;;;;;;0.50;98.40;;;;;;5052286;28;19909;-75
2021/04/04 00:15:25;;;;;;;;;;;0.50;98.50;;;;;;5052043;28;19909;-76
2021/04/04 00:17:51;;;;;;;;;;;0.50;98.60;;;;;;5050659;28;19919;-75
2021/04/04 00:20:17;;;;;;;;;;;0.50;98.60;;;;;;5059600;28;19920;-75
2021/04/04 00:22:43;;;;;;;;;;;0.40;98.70;;;;;;5062104;28;19909;-75
2021/04/04 00:25:10;;;;;;;;;;;0.40;98.80;;;;;;5051693;28;20293;-75
2021/04/04 00:27:36;;;;;;;;;;;0.40;98.90;;;;;;5050680;28;19991;-75
2021/04/04 00:30:08;;;;;;;;;;;0.40;98.90;;;;;;5051675;28;20395;-77
2021/04/04 00:32:34;;;;;;;;;;;0.50;98.90;;;;;;5051544;28;19909;-75
2021/04/04 00:34:59;;;;;;;;;;;0.50;98.80;;;;;;5051572;28;20354;-76
2021/04/04 00:37:25;;;;;;;;;;;0.50;98.80;;;;;;5050616;28;20001;-75
2021/04/04 00:39:51;;;;;;;;;;;0.40;98.90;;;;;;5051526;28;19908;-75
2021/04/04 00:42:16;;;;;;;;;;;0.40;98.90;;;;;;5050158;28;19913;-75
2021/04/04 00:44:41;;;;;;;;;;;0.40;98.90;;;;;;5050673;28;19960;-75
2021/04/04 00:47:07;;;;;;;;;;;0.50;98.80;;;;;;5050277;28;20358;-76
2021/04/04 00:49:32;;;;;;;;;;;0.50;98.80;;;;;;5056920;28;19908;-75
2021/04/04 00:51:58;;;;;;;;;;;0.50;98.90;;;;;;5058828;28;20056;-77
2021/04/04 00:54:24;;;;;;;;;;;0.60;99.00;;;;;;5051392;28;20000;-75
2021/04/04 00:56:49;;;;;;;;;;;0.60;99.00;;;;;;5050482;28;19909;-75
2021/04/04 00:59:15;;;;;;;;;;;0.60;99.00;;;;;;5051334;28;19931;-76
2021/04/04 01:01:40;;;;;;;;;;;0.60;99.00;;;;;;5051354;28;19916;-75
2021/04/04 01:04:06;;;;;;;;;;;0.60;98.90;;;;;;5061676;28;19952;-75
2021/04/04 01:06:32;;;;;;;;;;;0.60;98.90;;;;;;5069284;28;19955;-75
2021/04/04 01:08:57;;;;;;;;;;;0.60;99.00;;;;;;5070385;28;19999;-75
2021/04/04 01:11:46;;;;;;;;;;;0.50;99.00;;;;;;5068923;28;19909;-75
2021/04/04 01:14:17;;;;;;;;;;;0.50;99.10;;;;;;5068158;28;19924;-75
2021/04/04 01:16:45;;;;;;;;;;;0.50;99.20;;;;;;5059654;28;19909;-76
2021/04/04 01:19:14;;;;;;;;;;;0.50;99.30;;;;;;5056291;28;19962;-76
2021/04/04 01:22:10;;;;;;;;;;;0.50;99.40;;;;;;5062519;28;19961;-75
2021/04/04 01:24:45;;;;;;;;;;;0.40;99.40;;;;;;5062410;28;20007;-75
2021/04/04 01:27:15;;;;;;;;;;;0.40;99.50;;;;;;5069234;28;20258;-75
2021/04/04 01:29:41;;;;;;;;;;;0.40;99.50;;;;;;5070136;28;20285;-77
2021/04/04 01:32:07;;;;;;;;;;;0.40;99.60;;;;;;5070003;28;20429;-75
2021/04/04 01:34:33;;;;;;;;;;;0.30;99.60;;;;;;5057620;28;19916;-75
2021/04/04 01:37:05;;;;;;;;;;;0.30;99.70;;;;;;5045379;28;19917;-75
2021/04/04 01:39:46;;;;;;;;;;;0.30;99.70;;;;;;5070163;28;19931;-75
2021/04/04 01:42:13;;;;;;;;;;;0.30;99.70;;;;;;5068658;28;19909;-75
2021/04/04 01:44:42;;;;;;;;;;;0.30;99.80;;;;;;5070137;28;20204;-75
2021/04/04 01:47:08;;;;;;;;;;;0.20;99.90;;;;;;5068871;28;19969;-77
2021/04/04 01:49:34;;;;;;;;;;;0.10;99.90;;;;;;5061395;28;19909;-76
2021/04/04 01:52:00;;;;;;;;;;;0.10;99.90;;;;;;5061298;28;19955;-76
2021/04/04 01:54:27;;;;;;;;;;;0.00;99.90;;;;;;5050579;28;20193;-75
2021/04/04 01:56:55;;;;;;;;;;;0.00;99.90;;;;;;5053497;28;19916;-75
2021/04/04 01:59:20;;;;;;;;;;;0.00;99.90;;;;;;5054453;28;19955;-75
2021/04/04 02:01:46;;;;;;;;;;;-0.10;99.90;;;;;;5054437;28;19909;-75
2021/04/04 02:04:12;;;;;;;;;;;-0.10;99.90;;;;;;5054143;28;19960;-76
2021/04/04 02:06:38;;;;;;;;;;;-0.10;99.90;;;;;;5053329;28;19952;-76
2021/04/04 02:09:05;;;;;;;;;;;-0.10;99.90;;;;;;5054347;28;19913;-77
2021/04/04 02:11:31;;;;;;;;;;;-0.10;99.90;;;;;;5054373;28;20289;-75
2021/04/04 02:13:57;;;;;;;;;;;-0.10;99.90;;;;;;5054485;28;20640;-75
2021/04/04 02:16:24;;;;;;;;;;;-0.20;99.90;;;;;;5053245;28;19948;-75
2021/04/04 02:18:49;;;;;;;;;;;-0.30;99.90;;;;;;5053727;28;19916;-75
2021/04/04 02:21:16;;;;;;;;;;;-0.30;99.90;;;;;;5058501;28;19909;-76
2021/04/04 02:23:41;;;;;;;;;;;-0.30;99.90;;;;;;5073114;28;19912;-75
2021/04/04 02:26:07;;;;;;;;;;;-0.30;99.90;;;;;;5072246;28;19909;-75
2021/04/04 02:28:32;;;;;;;;;;;-0.30;99.90;;;;;;5073237;28;19909;-76
2021/04/04 02:30:58;;;;;;;;;;;-0.30;99.90;;;;;;5073083;28;19915;-76
2021/04/04 02:33:46;;;;;;;;;;;-0.30;99.90;;;;;;5072797;28;20271;-75
2021/04/04 02:36:12;;;;;;;;;;;-0.30;99.90;;;;;;5071931;28;19923;-75
2021/04/04 02:38:43;;;;;;;;;;;-0.40;99.90;;;;;;5072932;28;19908;-75
2021/04/04 02:41:09;;;;;;;;;;;-0.40;99.90;;;;;;5072996;28;19958;-75
2021/04/04 02:43:36;;;;;;;;;;;-0.40;99.90;;;;;;5072743;28;20331;-75
2021/04/04 02:46:04;;;;;;;;;;;-0.40;99.90;;;;;;5071949;28;19913;-75
2021/04/04 02:48:41;;;;;;;;;;;-0.30;99.90;;;;;;5071527;28;19950;-75
2021/04/04 02:51:07;;;;;;;;;;;-0.30;99.90;;;;;;5062530;28;19909;-75
2021/04/04 02:53:37;;;;;;;;;;;-0.30;99.90;;;;;;5065105;28;20365;-75
2021/04/04 02:56:03;;;;;;;;;;;-0.40;99.90;;;;;;5071773;28;20011;-75
2021/04/04 02:58:30;;;;;;;;;;;-0.40;99.90;;;;;;5072653;28;19991;-75
2021/04/04 03:00:57;;;;;;;;;;;-0.40;99.90;;;;;;5062945;28;19909;-76
2021/04/04 03:03:24;;;;;;;;;;;-0.40;99.90;;;;;;5052577;28;19955;-77
2021/04/04 03:05:50;;;;;;;;;;;-0.50;99.90;;;;;;5052302;28;19916;-76
2021/04/04 03:08:16;;;;;;;;;;;-0.50;99.90;;;;;;5052282;28;19932;-75
2021/04/04 03:10:42;;;;;;;;;;;-0.50;99.90;;;;;;5051993;28;19913;-75
2021/04/04 03:13:09;;;;;;;;;;;-0.60;99.90;;;;;;5059803;28;19927;-76
2021/04/04 03:15:35;;;;;;;;;;;-0.60;99.90;;;;;;5062428;28;20320;-78
2021/04/04 03:18:00;;;;;;;;;;;-0.60;99.90;;;;;;5057432;28;19913;-75
2021/04/04 03:20:26;;;;;;;;;;;-0.60;99.90;;;;;;5060494;28;20354;-76
2021/04/04 03:22:53;;;;;;;;;;;-0.60;99.90;;;;;;5070217;28;20393;-75
2021/04/04 03:25:20;;;;;;;;;;;-0.60;99.90;;;;;;5071842;28;19912;-75
2021/04/04 03:27:46;;;;;;;;;;;-0.60;99.90;;;;;;5071002;28;20017;-76
2021/04/04 03:30:58;;;;;;;;;;;-0.70;99.90;;;;;;5057537;28;19916;-75
2021/04/04 03:33:05;;;;;;;;;;;-0.70;99.90;;;;;;5048421;28;20434;-75
2021/04/04 03:35:32;;;;;;;;;;;-0.70;99.90;;;;;;5063852;28;19928;-76
2021/04/04 03:37:58;;;;;;;;;;;-0.70;99.90;;;;;;5071350;28;19916;-75
2021/04/04 03:40:24;;;;;;;;;;;-0.70;99.90;;;;;;5071814;28;19951;-77
2021/04/04 03:42:50;;;;;;;;;;;-0.60;99.90;;;;;;5071565;28;19985;-75
2021/04/04 03:45:17;;;;;;;;;;;-0.60;99.90;;;;;;5071481;28;19982;-76
2021/04/04 03:47:43;;;;;;;;;;;-0.70;99.90;;;;;;5069076;28;20312;-75
2021/04/04 03:50:09;;;;;;;;;;;-0.80;99.90;;;;;;5060581;28;20003;-75
2021/04/04 03:52:36;;;;;;;;;;;-0.80;99.90;;;;;;5053998;28;19954;-75
2021/04/04 03:55:02;;;;;;;;;;;-0.80;99.90;;;;;;5052456;28;20308;-75
2021/04/04 03:57:27;;;;;;;;;;;-0.80;99.90;;;;;;5050900;28;19970;-75
2021/04/04 03:59:54;;;;;;;;;;;-0.80;99.90;;;;;;5067760;28;19912;-75
2021/04/04 04:02:21;;;;;;;;;;;-0.80;99.90;;;;;;5071307;28;20262;-75
2021/04/04 04:04:47;;;;;;;;;;;-0.80;99.90;;;;;;5071054;28;19912;-76
2021/04/04 04:07:12;;;;;;;;;;;-0.90;99.90;;;;;;5070563;28;19909;-75
2021/04/04 04:09:38;;;;;;;;;;;-0.80;99.90;;;;;;5071029;28;20354;-75
2021/04/04 04:12:04;;;;;;;;;;;-0.90;99.90;;;;;;5070961;28;19962;-75
2021/04/04 04:14:30;;;;;;;;;;;-0.80;99.90;;;;;;5071597;28;20419;-75
2021/04/04 04:16:56;;;;;;;;;;;-0.80;99.90;;;;;;5070268;28;20411;-75
2021/04/04 04:19:21;;;;;;;;;;;-0.70;99.90;;;;;;5063334;28;19955;-75
2021/04/04 04:21:47;;;;;;;;;;;-0.70;99.90;;;;;;5064219;28;19912;-75
2021/04/04 04:24:13;;;;;;;;;;;-0.70;99.90;;;;;;5051806;28;19913;-76
2021/04/04 04:26:41;;;;;;;;;;;-0.70;99.90;;;;;;5052276;28;20366;-75
2021/04/04 04:29:07;;;;;;;;;;;-0.70;99.90;;;;;;5070760;28;19908;-75
2021/04/04 04:31:34;;;;;;;;;;;-0.70;99.90;;;;;;5070739;28;19912;-75
2021/04/04 04:34:01;;;;;;;;;;;-0.70;99.90;;;;;;5070670;28;19913;-75
2021/04/04 04:36:27;;;;;;;;;;;-0.70;99.90;;;;;;5069750;28;20029;-75
2021/04/04 04:38:53;;;;;;;;;;;-0.70;99.90;;;;;;5070723;28;20358;-75
2021/04/04 04:41:19;;;;;;;;;;;-0.80;99.90;;;;;;5070530;28;19954;-75
2021/04/04 04:43:47;;;;;;;;;;;-0.80;99.90;;;;;;5070324;28;20381;-75
2021/04/04 04:46:14;;;;;;;;;;;-0.80;99.90;;;;;;5069638;28;19961;-75
2021/04/04 04:48:39;;;;;;;;;;;-0.80;99.90;;;;;;5068070;28;20285;-77
2021/04/04 04:51:05;;;;;;;;;;;-0.90;99.90;;;;;;5058332;28;19909;-75
2021/04/04 04:53:31;;;;;;;;;;;-0.90;99.90;;;;;;5062790;28;19916;-75
2021/04/04 04:56:03;;;;;;;;;;;-0.90;99.90;;;;;;5069398;28;20342;-74
2021/04/04 04:58:30;;;;;;;;;;;-0.90;99.90;;;;;;5069274;28;19909;-75
2021/04/04 05:01:00;;;;;;;;;;;-0.90;99.90;;;;;;5051352;28;19909;-77
2021/04/04 05:03:26;;;;;;;;;;;-0.90;99.90;;;;;;5052175;28;19909;-77
2021/04/04 05:05:51;;;;;;;;;;;-0.90;99.90;;;;;;5069525;28;20274;-75
2021/04/04 05:08:17;;;;;;;;;;;-0.80;99.90;;;;;;5070128;28;20062;-75
2021/04/04 05:10:44;;;;;;;;;;;-0.80;99.90;;;;;;5070444;28;19909;-75
2021/04/04 05:13:11;;;;;;;;;;;-0.80;99.90;;;;;;5064225;28;19909;-75
2021/04/04 05:15:39;;;;;;;;;;;-0.80;99.90;;;;;;5058972;28;20006;-76
2021/04/04 05:18:05;;;;;;;;;;;-0.80;99.90;;;;;;5051221;28;19920;-75
2021/04/04 05:20:30;;;;;;;;;;;-0.90;99.90;;;;;;5058773;28;19909;-76
2021/04/04 05:22:56;;;;;;;;;;;-0.90;99.90;;;;;;5064122;28;19915;-75
2021/04/04 05:25:21;;;;;;;;;;;-1.00;99.90;;;;;;5070105;28;19963;-75
2021/04/04 05:27:47;;;;;;;;;;;-0.90;99.90;;;;;;5069471;28;20015;-75
2021/04/04 05:30:13;;;;;;;;;;;-0.90;99.90;;;;;;5070919;28;20298;-76
2021/04/04 05:32:42;;;;;;;;;;;-0.90;99.90;;;;;;5061463;28;19909;-76
2021/04/04 05:35:18;;;;;;;;;;;-0.90;99.90;;;;;;5054316;28;19952;-75
2021/04/04 05:37:44;;;;;;;;;;;-0.80;99.90;;;;;;5053665;28;20000;-75
2021/04/04 05:40:30;;;;;;;;;;;-0.70;99.90;;;;;;5054859;28;19909;-75
2021/04/04 05:42:57;;;;;;;;;;;-0.70;99.90;;;;;;5054549;28;19955;-75
2021/04/04 05:45:37;;;;;;;;;;;-0.60;99.90;;;;;;5070967;28;19990;-75
2021/04/04 05:48:23;;;;;;;;;;;-0.60;99.90;;;;;;5062984;28;19982;-75
2021/04/04 05:51:12;;;;;;;;;;;-0.50;99.90;;;;;;5068507;28;19913;-76
2021/04/04 05:53:47;;;;;;;;;;;-0.50;99.90;;;;;;5060981;28;19920;-75
2021/04/04 05:56:22;;;;;;;;;;;-0.40;99.90;;;;;;5053203;28;19923;-76
2021/04/04 05:58:51;;;;;;;;;;;-0.30;99.90;;;;;;5059861;28;20405;-75
2021/04/04 06:01:36;;;;;;;;;;;-0.30;99.90;;;;;;5056955;28;19971;-75
2021/04/04 06:04:20;;;;;;;;;;;-0.20;99.90;;;;;;5052986;28;20399;-75
2021/04/04 06:06:45;;;;;;;;;;;-0.10;99.90;;;;;;5052608;28;20289;-76
2021/04/04 06:09:24;;;;;;;;;;;-0.10;99.90;;;;;;5054279;28;19909;-75
2021/04/04 06:12:04;;;;;;;;;;;0.00;99.90;;;;;;5054105;28;19916;-76
2021/04/04 06:14:42;;;;;;;;;;;0.10;99.90;;;;;;5067321;28;19909;-75
2021/04/04 06:17:23;;;;;;;;;;;0.20;99.90;;;;;;5072210;28;20348;-76
2021/04/04 06:19:59;;;;;;;;;;;0.20;99.90;;;;;;5062501;28;19919;-75
2021/04/04 06:22:33;;;;;;;;;;;0.30;99.90;;;;;;5064012;28;19909;-76
2021/04/04 06:25:03;;;;;;;;;;;0.40;99.90;;;;;;5053963;28;19919;-75
2021/04/04 06:27:36;;;;;;;;;;;0.50;99.90;;;;;;5071807;28;20427;-75
2021/04/04 06:30:01;;;;;;;;;;;0.60;99.90;;;;;;5073194;28;20369;-75
2021/04/04 06:32:36;;;;;;;;;;;0.70;99.90;;;;;;5072891;28;19913;-75
2021/04/04 06:35:03;;;;;;;;;;;0.80;99.90;;;;;;5071397;28;19962;-75
2021/04/04 06:38:01;;;;;;;;;;;0.90;99.90;;;;;;5072055;28;19959;-75
2021/04/04 06:40:43;;;;;;;;;;;1.00;99.90;;;;;;5053462;28;20366;-75
2021/04/04 06:43:17;;;;;;;;;;;1.10;99.90;;;;;;5071722;28;19958;-76
2021/04/04 06:45:43;;;;;;;;;;;1.20;99.90;;;;;;5072431;28;19912;-76
2021/04/04 06:48:08;;;;;;;;;;;1.40;99.90;;;;;;5073119;28;19913;-76
2021/04/04 06:50:40;;;;;;;;;;;1.50;99.90;;;;;;5069344;28;19953;-75
2021/04/04 06:53:12;;;;;;;;;;;1.70;99.90;;;;;;5088783;28;19930;-75
2021/04/04 06:55:49;;;;;;;;;;;1.80;99.90;;;;;;5090549;28;19951;-75
2021/04/04 06:58:21;;;;;;;;;;;1.90;99.90;;;;;;5073293;28;19915;-75
2021/04/04 07:01:05;;;;;;;;;;;2.10;99.90;;;;;;5055270;28;19920;-76
2021/04/04 07:03:35;;;;;;;;;;;2.30;99.90;;;;;;5052936;28;19963;-76
2021/04/04 07:06:19;;;;;;;;;;;2.50;99.90;;;;;;5052203;28;19981;-75
2021/04/04 07:08:54;;;;;;;;;;;2.60;99.90;;;;;;5053117;28;19962;-75
2021/04/04 07:11:34;;;;;;;;;;;2.80;99.90;;;;;;5053087;28;19966;-75
2021/04/04 07:14:18;;;;;;;;;;;3.00;99.90;;;;;;5060986;28;19912;-75
2021/04/04 07:16:56;;;;;;;;;;;3.20;99.60;;;;;;5062486;28;19971;-75
2021/04/04 07:19:22;;;;;;;;;;;3.40;98.90;;;;;;5073549;28;19913;-75
2021/04/04 07:21:47;;;;;;;;;;;3.60;98.40;;;;;;5085132;28;19909;-75
2021/04/04 07:24:24;;;;;;;;;;;3.80;98.30;;;;;;5072800;28;19959;-75
2021/04/04 07:27:08;;;;;;;;;;;3.90;97.70;;;;;;5061635;28;19916;-75
2021/04/04 07:29:46;;;;;;;;;;;4.00;97.70;;;;;;5071504;28;19921;-75
2021/04/04 07:32:18;;;;;;;;;;;4.20;97.60;;;;;;5059507;28;19913;-75
2021/04/04 07:34:46;;;;;;;;;;;4.40;97.60;;;;;;5072134;28;20370;-75
2021/04/04 07:37:18;;;;;;;;;;;4.90;96.90;;;;;;5070205;28;19920;-75
2021/04/04 07:39:45;;;;;;;;;;;5.70;95.80;;;;;;5053179;28;19944;-75
2021/04/04 07:42:29;;;;;;;;;;;6.60;94.40;;;;;;5071886;28;20275;-76
2021/04/04 07:45:12;;;;;;;;;;;7.40;92.30;;;;;;5068578;28;19912;-76
2021/04/04 07:47:37;;;;;;;;;;;8.50;90.50;;;;;;5058745;28;19942;-76
2021/04/04 07:50:03;;;;;;;;;;;9.50;88.30;;;;;;5054053;28;20473;-76
2021/04/04 07:52:39;;;;;;;;;;;10.20;85.30;;;;;;5064098;28;20258;-76
2021/04/04 07:55:05;;;;;;;;;;;10.80;82.90;;;;;;5053248;28;20362;-76
2021/04/04 07:57:30;;;;;;;;;;;11.50;79.40;;;;;;5050710;28;19909;-76
2021/04/04 08:00:01;;;;;;;;;;;11.90;78.10;;;;;;5050949;28;20270;-76
2021/04/04 08:02:29;;;;;;;;;;;12.40;76.70;;;;;;5064584;28;19909;-76
2021/04/04 08:04:55;;;;;;;;;;;12.60;73.10;;;;;;5070749;28;19912;-76
2021/04/04 08:07:23;;;;;;;;;;;13.00;72.30;;;;;;5069996;28;20388;-76
2021/04/04 08:09:58;;;;;;;;;;;13.60;71.60;;;;;;5051624;28;20012;-76
2021/04/04 08:12:29;;;;;;;;;;;14.00;69.40;;;;;;5064514;28;19995;-76
2021/04/04 08:14:58;;;;;;;;;;;14.50;67.70;;;;;;5054806;28;19959;-77
2021/04/04 08:17:23;;;;;;;;;;;14.80;68.20;;;;;;5052421;28;19944;-76
2021/04/04 08:20:12;;;;;;;;;;;15.10;65.10;;;;;;5065691;28;20330;-76
2021/04/04 08:22:38;;;;;;;;;;;15.50;65.90;;;;;;5058608;28;19913;-77
2021/04/04 08:25:06;;;;;;;;;;;15.80;64.40;;;;;;5070875;28;19955;-75
2021/04/04 08:27:35;;;;;;;;;;;16.10;61.70;;;;;;5069498;28;19909;-75
2021/04/04 08:30:10;;;;;;;;;;;16.40;60.50;;;;;;5070584;28;19990;-75
2021/04/04 08:32:35;;;;;;;;;;;16.50;59.00;;;;;;5070371;28;19912;-76
2021/04/04 08:35:01;;;;;;;;;;;16.30;60.10;;;;;;5066588;28;19924;-76
2021/04/04 08:37:32;;;;;;;;;;;16.40;60.40;;;;;;5066213;28;20010;-75
2021/04/04 08:39:59;;;;;;;;;;;16.60;61.30;;;;;;5058247;28;19976;-73
2021/04/04 08:42:24;;;;;;;;;;;17.10;60.50;;;;;;5060369;28;19920;-73
2021/04/04 08:45:13;;;;;;;;;;;17.30;57.50;;;;;;5066491;28;19912;-74
2021/04/04 08:47:41;;;;;;;;;;;17.10;57.20;;;;;;5060875;28;19978;-73
2021/04/04 08:50:08;;;;;;;;;;;16.90;58.00;;;;;;5062112;28;20028;-75
2021/04/04 08:52:35;;;;;;;;;;;16.70;56.80;;;;;;5059599;28;19910;-74
2021/04/04 08:55:01;;;;;;;;;;;17.00;57.90;;;;;;5051282;28;19986;-75
2021/04/04 08:57:32;;;;;;;;;;;17.40;58.30;;;;;;5050375;28;19948;-74
2021/04/04 08:59:59;;;;;;;;;;;17.60;57.40;;;;;;5050953;28;19913;-74
2021/04/04 09:02:27;;;;;;;;;;;17.80;53.40;;;;;;5051104;28;19909;-74
2021/04/04 09:04:53;;;;;;;;;;;17.30;53.80;;;;;;5058261;28;19919;-74
2021/04/04 09:07:20;;;;;;;;;;;17.10;55.40;;;;;;5069322;28;19912;-74
2021/04/04 09:09:46;;;;;;;;;;;17.20;55.70;;;;;;5070286;28;19909;-74
2021/04/04 09:12:12;;;;;;;;;;;17.50;56.70;;;;;;5070038;28;19913;-74
2021/04/04 09:14:41;;;;;;;;;;;17.90;55.60;;;;;;5070138;28;19935;-74
2021/04/04 09:17:08;;;;;;;;;;;18.30;53.60;;;;;;5052224;28;20317;-74
2021/04/04 09:19:35;;;;;;;;;;;18.50;53.20;;;;;;5058525;28;19908;-75
2021/04/04 09:22:20;;;;;;;;;;;18.30;52.30;;;;;;5065984;28;19958;-74
2021/04/04 09:24:56;;;;;;;;;;;18.40;52.40;;;;;;5049649;28;19936;-74
2021/04/04 09:27:23;;;;;;;;;;;18.30;46.40;;;;;;5049843;28;19909;-74
2021/04/04 09:29:51;;;;;;;;;;;18.20;48.50;;;;;;5050881;28;19955;-74
2021/04/04 09:32:26;;;;;;;;;;;17.70;49.60;;;;;;5050817;28;19909;-74
2021/04/04 09:34:52;;;;;;;;;;;17.60;51.40;;;;;;5049190;28;19937;-75
2021/04/04 09:37:24;;;;;;;;;;;17.90;51.00;;;;;;5049793;28;19944;-74
2021/04/04 09:39:51;;;;;;;;;;;18.10;49.70;;;;;;5063878;28;19998;-75
2021/04/04 09:42:16;;;;;;;;;;;17.70;50.00;;;;;;5070095;28;19908;-74
2021/04/04 09:44:42;;;;;;;;;;;17.10;50.40;;;;;;5070581;28;20360;-74
2021/04/04 09:47:07;;;;;;;;;;;16.50;51.60;;;;;;5069098;28;19912;-74
2021/04/04 09:49:46;;;;;;;;;;;16.50;54.00;;;;;;5062371;28;19909;-74
2021/04/04 09:52:18;;;;;;;;;;;16.20;48.60;;;;;;5052381;28;19996;-74
2021/04/04 09:54:56;;;;;;;;;;;16.30;51.70;;;;;;5052058;28;19966;-74
2021/04/04 09:57:21;;;;;;;;;;;16.90;50.40;;;;;;5050692;28;19913;-74
2021/04/04 09:59:47;;;;;;;;;;;17.30;49.60;;;;;;5050629;28;19919;-75
2021/04/04 10:02:12;;;;;;;;;;;17.60;52.80;;;;;;5050926;28;19913;-74
2021/04/04 10:04:44;;;;;;;;;;;17.70;48.30;;;;;;5050567;28;19924;-74
2021/04/04 10:07:09;;;;;;;;;;;17.20;46.60;;;;;;5050759;28;20361;-74
2021/04/04 10:09:38;;;;;;;;;;;17.10;52.10;;;;;;5051499;28;19935;-74
2021/04/04 10:12:04;;;;;;;;;;;17.00;49.90;;;;;;5050804;28;19916;-74
2021/04/04 10:14:30;;;;;;;;;;;16.60;48.30;;;;;;5050418;28;19909;-73
2021/04/04 10:17:13;;;;;;;;;;;16.50;51.20;;;;;;5051521;28;19931;-74
2021/04/04 10:19:51;;;;;;;;;;;17.00;52.10;;;;;;5058245;28;20452;-74
2021/04/04 10:22:17;;;;;;;;;;;17.20;47.80;;;;;;5061216;28;19998;-74
2021/04/04 10:24:42;;;;;;;;;;;17.60;48.10;;;;;;5054304;28;20734;-74
2021/04/04 10:27:19;;;;;;;;;;;17.80;48.80;;;;;;5053695;28;19909;-74
2021/04/04 10:29:45;;;;;;;;;;;18.00;48.80;;;;;;5067198;28;19909;-74
2021/04/04 10:32:11;;;;;;;;;;;18.30;48.70;;;;;;5054145;28;19909;-74
2021/04/04 10:34:43;;;;;;;;;;;18.50;45.20;;;;;;5073118;28;20286;-74
2021/04/04 10:37:09;;;;;;;;;;;18.50;48.40;;;;;;5072072;28;19927;-74
2021/04/04 10:39:34;;;;;;;;;;;18.90;48.20;;;;;;5072650;28;20002;-74
2021/04/04 10:42:11;;;;;;;;;;;19.60;46.90;;;;;;5073316;28;20312;-74
2021/04/04 10:44:37;;;;;;;;;;;20.10;47.30;;;;;;5072727;28;20431;-74
2021/04/04 10:47:18;;;;;;;;;;;20.50;45.60;;;;;;5071970;28;19943;-74
2021/04/04 10:49:44;;;;;;;;;;;20.70;44.40;;;;;;5062916;28;20015;-74
2021/04/04 10:52:09;;;;;;;;;;;20.30;44.80;;;;;;5064482;28;19959;-74
2021/04/04 10:54:35;;;;;;;;;;;19.90;45.40;;;;;;5053820;28;19950;-74
2021/04/04 10:57:01;;;;;;;;;;;19.40;44.40;;;;;;5052914;28;19952;-74
2021/04/04 10:59:27;;;;;;;;;;;19.20;45.20;;;;;;5053424;28;19916;-75
2021/04/04 11:01:53;;;;;;;;;;;19.20;44.90;;;;;;5053390;28;19908;-75
2021/04/04 11:04:18;;;;;;;;;;;19.60;45.70;;;;;;5053195;28;19919;-75
2021/04/04 11:06:44;;;;;;;;;;;20.00;44.30;;;;;;5051979;28;19913;-75
2021/04/04 11:09:09;;;;;;;;;;;19.70;45.00;;;;;;5053086;28;19913;-75
2021/04/04 11:11:35;;;;;;;;;;;19.60;44.80;;;;;;5053284;28;19932;-74
2021/04/04 11:14:01;;;;;;;;;;;19.50;45.80;;;;;;5053285;28;19913;-74
2021/04/04 11:16:27;;;;;;;;;;;19.70;45.60;;;;;;5054675;28;19909;-74
2021/04/04 11:18:54;;;;;;;;;;;19.80;43.30;;;;;;5055449;28;19939;-75
2021/04/04 11:21:28;;;;;;;;;;;19.90;42.30;;;;;;5060449;28;20374;-74
2021/04/04 11:23:54;;;;;;;;;;;19.80;42.10;;;;;;5053150;28;19961;-74
2021/04/04 11:26:22;;;;;;;;;;;19.50;44.30;;;;;;5050757;28;19912;-74
2021/04/04 11:29:06;;;;;;;;;;;19.40;44.30;;;;;;5052189;28;19920;-74
2021/04/04 11:31:32;;;;;;;;;;;19.20;44.60;;;;;;5052709;28;19909;-75
2021/04/04 11:34:34;;;;;;;;;;;19.60;44.10;;;;;;5053129;28;20305;-75
2021/04/04 11:37:04;;;;;;;;;;;19.60;44.80;;;;;;5049177;28;20363;-74
2021/04/04 11:39:30;;;;;;;;;;;19.70;43.40;;;;;;5052214;28;19908;-74
2021/04/04 11:41:56;;;;;;;;;;;19.60;44.10;;;;;;5052649;28;19909;-74
2021/04/04 11:44:29;;;;;;;;;;;19.40;42.70;;;;;;5052730;28;19928;-74
2021/04/04 11:46:55;;;;;;;;;;;19.40;44.30;;;;;;5051077;28;19909;-74
2021/04/04 11:49:30;;;;;;;;;;;19.40;43.70;;;;;;5058321;28;19913;-75
2021/04/04 11:51:56;;;;;;;;;;;19.70;44.50;;;;;;5062428;28;20385;-75
2021/04/04 11:54:40;;;;;;;;;;;19.80;41.10;;;;;;5052405;28;19936;-74
2021/04/04 11:57:06;;;;;;;;;;;19.40;42.10;;;;;;5051302;28;19909;-74
2021/04/04 11:59:31;;;;;;;;;;;19.20;44.10;;;;;;5052332;28;19919;-75
2021/04/04 12:01:57;;;;;;;;;;;19.10;43.70;;;;;;5052330;28;19909;-75
2021/04/04 12:04:30;;;;;;;;;;;18.90;43.00;;;;;;5052128;28;19919;-74
2021/04/04 12:07:08;;;;;;;;;;;18.80;42.80;;;;;;5051244;28;19916;-74
2021/04/04 12:09:34;;;;;;;;;;;18.50;43.20;;;;;;5051974;28;19909;-74
2021/04/04 12:12:01;;;;;;;;;;;18.60;43.50;;;;;;5057496;28;19979;-74
2021/04/04 12:14:27;;;;;;;;;;;18.30;44.00;;;;;;5052249;28;19916;-74
2021/04/04 12:16:52;;;;;;;;;;;17.50;46.40;;;;;;5051056;28;20373;-74
2021/04/04 12:19:24;;;;;;;;;;;17.10;44.70;;;;;;5057146;28;20003;-74
2021/04/04 12:21:50;;;;;;;;;;;16.80;43.90;;;;;;5062995;28;20358;-74
2021/04/04 12:24:16;;;;;;;;;;;16.50;46.70;;;;;;5071174;28;19912;-74
2021/04/04 12:26:41;;;;;;;;;;;15.80;46.20;;;;;;5070101;28;19908;-74
2021/04/04 12:29:07;;;;;;;;;;;15.50;47.50;;;;;;5071018;28;19943;-74
2021/04/04 12:31:40;;;;;;;;;;;15.30;49.00;;;;;;5070772;28;19912;-74
2021/04/04 12:34:06;;;;;;;;;;;15.00;49.40;;;;;;5071190;28;19908;-74
2021/04/04 12:36:41;;;;;;;;;;;14.70;50.50;;;;;;5069675;28;20373;-74
2021/04/04 12:39:06;;;;;;;;;;;14.70;51.00;;;;;;5069478;28;19909;-74
2021/04/04 12:41:32;;;;;;;;;;;14.70;51.00;;;;;;5070642;28;19962;-75
2021/04/04 12:43:57;;;;;;;;;;;14.70;48.80;;;;;;5070583;28;19998;-75
2021/04/04 12:46:29;;;;;;;;;;;14.60;49.30;;;;;;5069854;28;19916;-74
2021/04/04 12:48:54;;;;;;;;;;;14.40;49.40;;;;;;5066417;28;19967;-74
2021/04/04 12:51:20;;;;;;;;;;;14.20;49.60;;;;;;5056757;28;19916;-74
2021/04/04 12:53:46;;;;;;;;;;;14.00;47.50;;;;;;5051293;28;19909;-75
2021/04/04 12:56:12;;;;;;;;;;;13.80;49.00;;;;;;5050380;28;19916;-75
2021/04/04 12:58:38;;;;;;;;;;;13.50;48.10;;;;;;5051792;28;19913;-75
2021/04/04 13:01:04;;;;;;;;;;;13.30;48.60;;;;;;5051406;28;19920;-75
2021/04/04 13:03:32;;;;;;;;;;;13.30;49.70;;;;;;5051038;28;20629;-75
2021/04/04 13:05:58;;;;;;;;;;;13.30;49.00;;;;;;5049929;28;19923;-75
2021/04/04 13:08:26;;;;;;;;;;;13.40;49.20;;;;;;5051270;28;19995;-75
2021/04/04 13:10:57;;;;;;;;;;;13.40;49.90;;;;;;5051402;28;19909;-75
2021/04/04 13:13:28;;;;;;;;;;;13.30;49.70;;;;;;5063807;28;20258;-75
2021/04/04 13:15:57;;;;;;;;;;;13.20;50.10;;;;;;5069104;28;19915;-75
2021/04/04 13:18:37;;;;;;;;;;;13.20;52.30;;;;;;5058683;28;20428;-75
2021/04/04 13:21:04;;;;;;;;;;;13.30;52.70;;;;;;5066655;28;19916;-75
2021/04/04 13:23:36;;;;;;;;;;;13.40;52.30;;;;;;5054003;28;19909;-75
2021/04/04 13:26:04;;;;;;;;;;;13.50;50.80;;;;;;5049918;28;20274;-75
2021/04/04 13:28:31;;;;;;;;;;;13.50;53.10;;;;;;5051037;28;19913;-75
2021/04/04 13:31:09;;;;;;;;;;;13.60;51.10;;;;;;5051080;28;20465;-75
2021/04/04 13:33:34;;;;;;;;;;;13.60;49.50;;;;;;5051013;28;20346;-75
2021/04/04 13:36:08;;;;;;;;;;;13.40;49.70;;;;;;5049631;28;20002;-75
2021/04/04 13:38:34;;;;;;;;;;;13.40;51.80;;;;;;5050951;28;19909;-74
2021/04/04 13:40:59;;;;;;;;;;;13.10;50.60;;;;;;5051090;28;20293;-75
2021/04/04 13:43:25;;;;;;;;;;;13.00;50.80;;;;;;5051003;28;19984;-75
2021/04/04 13:45:50;;;;;;;;;;;12.90;51.50;;;;;;5049835;28;20405;-75
2021/04/04 13:48:27;;;;;;;;;;;12.80;52.20;;;;;;5050852;28;19955;-75
2021/04/04 13:50:53;;;;;;;;;;;12.70;51.80;;;;;;5057399;28;20003;-75
2021/04/04 13:53:27;;;;;;;;;;;12.70;51.90;;;;;;5060644;28;19988;-75
2021/04/04 13:55:54;;;;;;;;;;;12.60;51.70;;;;;;5053928;28;19912;-75
2021/04/04 13:58:30;;;;;;;;;;;12.70;51.50;;;;;;5054480;28;20259;-75
2021/04/04 14:00:55;;;;;;;;;;;12.70;51.90;;;;;;5067912;28;19999;-75
2021/04/04 14:03:25;;;;;;;;;;;12.60;53.30;;;;;;5073801;28;20364;-75
2021/04/04 14:05:50;;;;;;;;;;;12.60;53.90;;;;;;5072201;28;19948;-75
2021/04/04 14:08:19;;;;;;;;;;;12.60;51.70;;;;;;5073526;28;20430;-75
2021/04/04 14:10:44;;;;;;;;;;;12.70;52.50;;;;;;5073440;28;19908;-75
2021/04/04 14:13:10;;;;;;;;;;;12.70;52.70;;;;;;5073506;28;19908;-75
2021/04/04 14:15:36;;;;;;;;;;;12.70;53.70;;;;;;5072822;28;19978;-75
2021/04/04 14:18:01;;;;;;;;;;;12.70;52.00;;;;;;5073213;28;19954;-75
2021/04/04 14:20:27;;;;;;;;;;;12.70;52.90;;;;;;5061012;28;19956;-75
2021/04/04 14:22:52;;;;;;;;;;;12.70;52.60;;;;;;5054836;28;19955;-75
2021/04/04 14:25:18;;;;;;;;;;;12.60;53.00;;;;;;5054231;28;20361;-75
2021/04/04 14:27:43;;;;;;;;;;;12.70;53.80;;;;;;5051802;28;19948;-75
2021/04/04 14:30:09;;;;;;;;;;;12.80;54.70;;;;;;5053989;28;19913;-75
2021/04/04 14:32:34;;;;;;;;;;;13.00;54.60;;;;;;5053893;28;20267;-75